sensor_id;sensor_type;location;lat;lon;timestamp;temperature;humidity
23114;DHT22;11726;50.122;8.832;2023-03-03T00:00:54;3.80;99.90
23114;DHT22;11726;50.122;8.832;2023-03-03T00:03:23;3.80;99.90
23114;DHT22;11726;50.122;8.832;2023-03-03T00:05:50;3.90;99.90
23114;DHT22;11726;50.122;8.832;2023-03-03T00:08:18;3.80;99.90
23114;DHT22;11726;50.122;8.832;2023-03-03T00:10:45;3.80;99.90
23114;DHT22;11726;50.122;8.832;2023-03-03T00:13:19;3.70;99.90
23114;DHT22;11726;50.122;8.832;2023-03-03T00:15:46;3.70;99.90
23114;DHT22;11726;50.122;8.832;2023-03-03T00:18:34;3.50;99.90
23114;DHT22;11726;50.122;8.832;2023-03-03T00:21:03;3.50;99.90
23114;DHT22;11726;50.122;8.832;2023-03-03T00:23:37;3.60;99.90
23114;DHT22;11726;50.122;8.832;2023-03-03T00:26:15;3.60;99.90
23114;DHT22;11726;50.122;8.832;2023-03-03T00:28:46;3.50;99.90
23114;DHT22;11726;50.122;8.832;2023-03-03T00:31:29;3.50;99.90
23114;DHT22;11726;50.122;8.832;2023-03-03T00:36:43;3.50;99.90
23114;DHT22;11726;50.122;8.832;2023-03-03T00:39:43;3.60;99.90
23114;DHT22;11726;50.122;8.832;2023-03-03T00:42:14;3.50;99.90
23114;DHT22;11726;50.122;8.832;2023-03-03T00:44:45;3.50;99.90
23114;DHT22;11726;50.122;8.832;2023-03-03T00:49:42;3.40;99.90
23114;DHT22;11726;50.122;8.832;2023-03-03T00:52:19;3.40;99.90
23114;DHT22;11726;50.122;8.832;2023-03-03T00:54:46;3.30;99.90
23114;DHT22;11726;50.122;8.832;2023-03-03T00:57:13;3.40;99.90
23114;DHT22;11726;50.122;8.832;2023-03-03T00:59:40;3.40;99.90
23114;DHT22;11726;50.122;8.832;2023-03-03T01:02:06;3.30;99.90
23114;DHT22;11726;50.122;8.832;2023-03-03T01:04:33;3.40;99.90
23114;DHT22;11726;50.122;8.832;2023-03-03T01:07:00;3.40;99.90
23114;DHT22;11726;50.122;8.832;2023-03-03T01:09:26;3.40;99.90
23114;DHT22;11726;50.122;8.832;2023-03-03T01:23:15;3.20;99.90
23114;DHT22;11726;50.122;8.832;2023-03-03T01:25:42;3.30;99.90
23114;DHT22;11726;50.122;8.832;2023-03-03T01:28:09;3.10;99.90
23114;DHT22;11726;50.122;8.832;2023-03-03T01:30:35;3.10;99.90
23114;DHT22;11726;50.122;8.832;2023-03-03T01:33:02;3.10;99.90
23114;DHT22;11726;50.122;8.832;2023-03-03T01:35:29;3.00;99.90
23114;DHT22;11726;50.122;8.832;2023-03-03T01:37:56;3.10;99.90
23114;DHT22;11726;50.122;8.832;2023-03-03T01:40:26;3.10;99.90
23114;DHT22;11726;50.122;8.832;2023-03-03T01:42:53;3.00;99.90
23114;DHT22;11726;50.122;8.832;2023-03-03T01:45:23;3.00;99.90
23114;DHT22;11726;50.122;8.832;2023-03-03T01:47:59;3.00;99.90
23114;DHT22;11726;50.122;8.832;2023-03-03T01:53:04;3.10;99.90
23114;DHT22;11726;50.122;8.832;2023-03-03T01:55:38;3.00;99.90
23114;DHT22;11726;50.122;8.832;2023-03-03T01:58:15;2.90;99.90
23114;DHT22;11726;50.122;8.832;2023-03-03T02:00:47;3.00;99.90
23114;DHT22;11726;50.122;8.832;2023-03-03T02:03:17;2.90;99.90
23114;DHT22;11726;50.122;8.832;2023-03-03T02:05:45;2.90;99.90
23114;DHT22;11726;50.122;8.832;2023-03-03T02:08:15;2.80;99.90
23114;DHT22;11726;50.122;8.832;2023-03-03T02:10:45;2.80;99.90
23114;DHT22;11726;50.122;8.832;2023-03-03T02:13:12;2.90;99.90
23114;DHT22;11726;50.122;8.832;2023-03-03T02:15:39;2.80;99.90
23114;DHT22;11726;50.122;8.832;2023-03-03T02:18:10;2.90;99.90
23114;DHT22;11726;50.122;8.832;2023-03-03T02:26:09;2.80;99.90
23114;DHT22;11726;50.122;8.832;2023-03-03T02:28:38;2.80;99.90
23114;DHT22;11726;50.122;8.832;2023-03-03T02:31:08;2.60;99.90
23114;DHT22;11726;50.122;8.832;2023-03-03T02:33:43;2.60;99.90
23114;DHT22;11726;50.122;8.832;2023-03-03T02:36:15;2.60;99.90
23114;DHT22;11726;50.122;8.832;2023-03-03T02:39:20;2.60;99.90
23114;DHT22;11726;50.122;8.832;2023-03-03T02:41:57;2.60;99.90
23114;DHT22;11726;50.122;8.832;2023-03-03T02:44:27;2.60;99.90
23114;DHT22;11726;50.122;8.832;2023-03-03T02:46:55;2.70;99.90
23114;DHT22;11726;50.122;8.832;2023-03-03T02:49:30;2.60;99.90
23114;DHT22;11726;50.122;8.832;2023-03-03T02:51:58;2.70;99.90
23114;DHT22;11726;50.122;8.832;2023-03-03T02:54:27;2.60;99.90
23114;DHT22;11726;50.122;8.832;2023-03-03T02:56:56;2.50;99.90
23114;DHT22;11726;50.122;8.832;2023-03-03T02:59:23;2.60;99.90
23114;DHT22;11726;50.122;8.832;2023-03-03T03:01:50;2.50;99.90
23114;DHT22;11726;50.122;8.832;2023-03-03T03:04:19;2.50;99.90
23114;DHT22;11726;50.122;8.832;2023-03-03T03:06:47;2.50;99.90
23114;DHT22;11726;50.122;8.832;2023-03-03T03:09:14;2.50;99.90
23114;DHT22;11726;50.122;8.832;2023-03-03T03:11:42;2.60;99.90
23114;DHT22;11726;50.122;8.832;2023-03-03T03:14:10;2.50;99.90
23114;DHT22;11726;50.122;8.832;2023-03-03T03:16:37;2.40;99.90
23114;DHT22;11726;50.122;8.832;2023-03-03T03:19:05;2.40;99.90
23114;DHT22;11726;50.122;8.832;2023-03-03T03:21:32;2.40;99.90
23114;DHT22;11726;50.122;8.832;2023-03-03T03:23:59;2.50;99.90
23114;DHT22;11726;50.122;8.832;2023-03-03T03:26:26;2.50;99.90
23114;DHT22;11726;50.122;8.832;2023-03-03T03:28:52;2.40;99.90
23114;DHT22;11726;50.122;8.832;2023-03-03T03:31:20;2.50;99.90
23114;DHT22;11726;50.122;8.832;2023-03-03T03:33:47;2.50;99.90
23114;DHT22;11726;50.122;8.832;2023-03-03T03:36:15;2.40;99.90
23114;DHT22;11726;50.122;8.832;2023-03-03T03:38:42;2.30;99.90
23114;DHT22;11726;50.122;8.832;2023-03-03T03:41:11;2.30;99.90
23114;DHT22;11726;50.122;8.832;2023-03-03T03:43:38;2.20;99.90
23114;DHT22;11726;50.122;8.832;2023-03-03T03:46:05;2.30;99.90
23114;DHT22;11726;50.122;8.832;2023-03-03T03:48:32;2.30;99.90
23114;DHT22;11726;50.122;8.832;2023-03-03T03:50:59;2.20;99.90
23114;DHT22;11726;50.122;8.832;2023-03-03T03:53:26;2.20;99.90
23114;DHT22;11726;50.122;8.832;2023-03-03T03:55:53;2.20;99.90
23114;DHT22;11726;50.122;8.832;2023-03-03T03:58:20;2.10;99.90
23114;DHT22;11726;50.122;8.832;2023-03-03T04:00:47;2.10;99.90
23114;DHT22;11726;50.122;8.832;2023-03-03T04:03:13;2.00;99.90
23114;DHT22;11726;50.122;8.832;2023-03-03T04:05:41;2.10;99.90
23114;DHT22;11726;50.122;8.832;2023-03-03T04:08:08;2.10;99.90
23114;DHT22;11726;50.122;8.832;2023-03-03T04:10:35;2.00;99.90
23114;DHT22;11726;50.122;8.832;2023-03-03T04:13:02;2.00;99.90
23114;DHT22;11726;50.122;8.832;2023-03-03T04:15:28;2.00;99.90
23114;DHT22;11726;50.122;8.832;2023-03-03T04:17:55;1.90;99.90
23114;DHT22;11726;50.122;8.832;2023-03-03T04:20:21;2.00;99.90
23114;DHT22;11726;50.122;8.832;2023-03-03T04:22:48;1.90;99.90
23114;DHT22;11726;50.122;8.832;2023-03-03T04:25:16;1.90;99.90
23114;DHT22;11726;50.122;8.832;2023-03-03T04:27:43;1.90;99.90
23114;DHT22;11726;50.122;8.832;2023-03-03T04:30:11;1.90;99.90
23114;DHT22;11726;50.122;8.832;2023-03-03T04:32:38;1.90;99.90
23114;DHT22;11726;50.122;8.832;2023-03-03T04:35:05;1.80;99.90
23114;DHT22;11726;50.122;8.832;2023-03-03T04:37:35;1.80;99.90
23114;DHT22;11726;50.122;8.832;2023-03-03T04:40:07;1.70;99.90
23114;DHT22;11726;50.122;8.832;2023-03-03T04:42:34;1.60;99.90
23114;DHT22;11726;50.122;8.832;2023-03-03T04:45:01;1.60;99.90
23114;DHT22;11726;50.122;8.832;2023-03-03T04:47:28;1.60;99.90
23114;DHT22;11726;50.122;8.832;2023-03-03T04:49:54;1.50;99.90
23114;DHT22;11726;50.122;8.832;2023-03-03T04:52:21;1.50;99.90
23114;DHT22;11726;50.122;8.832;2023-03-03T04:54:48;1.50;99.90
23114;DHT22;11726;50.122;8.832;2023-03-03T04:57:14;1.50;99.90
23114;DHT22;11726;50.122;8.832;2023-03-03T04:59:41;1.40;99.90
23114;DHT22;11726;50.122;8.832;2023-03-03T05:02:07;1.40;99.90
23114;DHT22;11726;50.122;8.832;2023-03-03T05:04:34;1.30;99.90
23114;DHT22;11726;50.122;8.832;2023-03-03T05:07:01;1.20;99.90
23114;DHT22;11726;50.122;8.832;2023-03-03T05:09:27;1.20;99.90
23114;DHT22;11726;50.122;8.832;2023-03-03T05:11:54;1.20;99.90
23114;DHT22;11726;50.122;8.832;2023-03-03T05:14:21;1.20;99.90
23114;DHT22;11726;50.122;8.832;2023-03-03T05:16:47;1.20;99.90
23114;DHT22;11726;50.122;8.832;2023-03-03T05:19:14;1.20;99.90
23114;DHT22;11726;50.122;8.832;2023-03-03T05:21:41;1.20;99.90
23114;DHT22;11726;50.122;8.832;2023-03-03T05:24:09;1.20;99.90
23114;DHT22;11726;50.122;8.832;2023-03-03T05:26:36;1.20;99.90
23114;DHT22;11726;50.122;8.832;2023-03-03T05:29:03;1.10;99.90
23114;DHT22;11726;50.122;8.832;2023-03-03T05:31:29;1.20;99.90
23114;DHT22;11726;50.122;8.832;2023-03-03T05:33:56;1.20;99.90
23114;DHT22;11726;50.122;8.832;2023-03-03T05:36:23;1.00;99.90
23114;DHT22;11726;50.122;8.832;2023-03-03T05:38:50;1.10;99.90
23114;DHT22;11726;50.122;8.832;2023-03-03T05:41:17;1.10;99.90
23114;DHT22;11726;50.122;8.832;2023-03-03T05:43:44;1.00;99.90
23114;DHT22;11726;50.122;8.832;2023-03-03T05:46:11;1.10;99.90
23114;DHT22;11726;50.122;8.832;2023-03-03T05:48:38;1.00;99.90
23114;DHT22;11726;50.122;8.832;2023-03-03T05:51:04;1.00;99.90
23114;DHT22;11726;50.122;8.832;2023-03-03T05:53:31;1.00;99.90
23114;DHT22;11726;50.122;8.832;2023-03-03T05:56:00;1.00;99.90
23114;DHT22;11726;50.122;8.832;2023-03-03T05:58:27;1.10;99.90
23114;DHT22;11726;50.122;8.832;2023-03-03T06:00:54;1.10;99.90
23114;DHT22;11726;50.122;8.832;2023-03-03T06:03:20;1.10;99.90
23114;DHT22;11726;50.122;8.832;2023-03-03T06:05:47;1.00;99.90
23114;DHT22;11726;50.122;8.832;2023-03-03T06:08:14;1.00;99.90
23114;DHT22;11726;50.122;8.832;2023-03-03T06:10:40;1.00;99.90
23114;DHT22;11726;50.122;8.832;2023-03-03T06:13:07;1.00;99.90
23114;DHT22;11726;50.122;8.832;2023-03-03T06:15:34;1.00;99.90
23114;DHT22;11726;50.122;8.832;2023-03-03T06:18:00;1.00;99.90
23114;DHT22;11726;50.122;8.832;2023-03-03T06:20:27;1.20;99.90
23114;DHT22;11726;50.122;8.832;2023-03-03T06:22:54;1.10;99.90
23114;DHT22;11726;50.122;8.832;2023-03-03T06:25:20;1.10;99.90
23114;DHT22;11726;50.122;8.832;2023-03-03T06:27:47;1.20;99.90
23114;DHT22;11726;50.122;8.832;2023-03-03T06:30:14;1.20;99.90
23114;DHT22;11726;50.122;8.832;2023-03-03T06:32:40;1.20;99.90
23114;DHT22;11726;50.122;8.832;2023-03-03T06:35:07;1.20;99.90
23114;DHT22;11726;50.122;8.832;2023-03-03T06:37:34;1.20;99.90
23114;DHT22;11726;50.122;8.832;2023-03-03T06:40:02;1.20;99.90
23114;DHT22;11726;50.122;8.832;2023-03-03T06:42:29;1.30;99.90
23114;DHT22;11726;50.122;8.832;2023-03-03T06:44:56;1.30;99.90
23114;DHT22;11726;50.122;8.832;2023-03-03T06:47:22;1.40;99.90
23114;DHT22;11726;50.122;8.832;2023-03-03T06:49:49;1.30;99.90
23114;DHT22;11726;50.122;8.832;2023-03-03T06:52:24;1.40;99.90
23114;DHT22;11726;50.122;8.832;2023-03-03T06:54:53;1.40;99.90
23114;DHT22;11726;50.122;8.832;2023-03-03T06:57:32;1.40;99.90
23114;DHT22;11726;50.122;8.832;2023-03-03T07:00:17;1.50;99.90
23114;DHT22;11726;50.122;8.832;2023-03-03T07:03:07;1.60;99.90
23114;DHT22;11726;50.122;8.832;2023-03-03T07:05:37;1.60;99.90
23114;DHT22;11726;50.122;8.832;2023-03-03T07:08:15;1.70;99.90
23114;DHT22;11726;50.122;8.832;2023-03-03T07:10:43;1.70;99.90
23114;DHT22;11726;50.122;8.832;2023-03-03T07:15:46;1.90;99.90
23114;DHT22;11726;50.122;8.832;2023-03-03T07:23:57;2.00;99.90
23114;DHT22;11726;50.122;8.832;2023-03-03T07:29:02;2.00;99.90
23114;DHT22;11726;50.122;8.832;2023-03-03T07:31:33;2.00;99.90
23114;DHT22;11726;50.122;8.832;2023-03-03T07:34:04;2.10;99.90
23114;DHT22;11726;50.122;8.832;2023-03-03T07:36:35;2.10;99.90
23114;DHT22;11726;50.122;8.832;2023-03-03T07:39:30;2.10;99.90
23114;DHT22;11726;50.122;8.832;2023-03-03T07:42:21;2.20;99.90
23114;DHT22;11726;50.122;8.832;2023-03-03T07:44:50;2.20;99.90
23114;DHT22;11726;50.122;8.832;2023-03-03T07:47:24;2.30;99.90
23114;DHT22;11726;50.122;8.832;2023-03-03T07:49:53;2.30;99.90
23114;DHT22;11726;50.122;8.832;2023-03-03T07:52:28;2.30;99.90
23114;DHT22;11726;50.122;8.832;2023-03-03T07:54:59;2.40;99.90
23114;DHT22;11726;50.122;8.832;2023-03-03T07:57:35;2.30;99.90
23114;DHT22;11726;50.122;8.832;2023-03-03T08:02:57;2.50;99.90
23114;DHT22;11726;50.122;8.832;2023-03-03T08:05:37;2.60;99.90
23114;DHT22;11726;50.122;8.832;2023-03-03T08:08:18;2.70;99.90
23114;DHT22;11726;50.122;8.832;2023-03-03T08:10:49;2.80;99.90
23114;DHT22;11726;50.122;8.832;2023-03-03T08:13:43;2.70;99.90
23114;DHT22;11726;50.122;8.832;2023-03-03T08:18:46;3.20;99.90
23114;DHT22;11726;50.122;8.832;2023-03-03T08:21:24;3.20;99.90
23114;DHT22;11726;50.122;8.832;2023-03-03T08:23:52;3.20;99.90
23114;DHT22;11726;50.122;8.832;2023-03-03T08:26:20;3.30;99.90
23114;DHT22;11726;50.122;8.832;2023-03-03T08:28:47;3.20;99.90
23114;DHT22;11726;50.122;8.832;2023-03-03T08:31:14;3.10;99.90
23114;DHT22;11726;50.122;8.832;2023-03-03T08:34:03;3.20;99.90
23114;DHT22;11726;50.122;8.832;2023-03-03T08:36:30;3.30;99.90
23114;DHT22;11726;50.122;8.832;2023-03-03T08:39:00;3.40;99.90
23114;DHT22;11726;50.122;8.832;2023-03-03T08:41:26;3.60;99.90
23114;DHT22;11726;50.122;8.832;2023-03-03T08:43:53;3.60;99.90
23114;DHT22;11726;50.122;8.832;2023-03-03T08:46:20;3.70;99.90
23114;DHT22;11726;50.122;8.832;2023-03-03T08:48:46;3.60;99.90
23114;DHT22;11726;50.122;8.832;2023-03-03T08:51:13;3.60;99.90
23114;DHT22;11726;50.122;8.832;2023-03-03T08:53:40;3.70;99.90
23114;DHT22;11726;50.122;8.832;2023-03-03T08:56:07;3.80;99.90
23114;DHT22;11726;50.122;8.832;2023-03-03T08:58:35;3.90;99.90
23114;DHT22;11726;50.122;8.832;2023-03-03T09:01:02;4.20;99.90
23114;DHT22;11726;50.122;8.832;2023-03-03T09:03:29;4.40;99.90
23114;DHT22;11726;50.122;8.832;2023-03-03T09:05:56;4.50;99.90
23114;DHT22;11726;50.122;8.832;2023-03-03T09:08:23;4.40;99.90
23114;DHT22;11726;50.122;8.832;2023-03-03T09:10:49;4.40;99.90
23114;DHT22;11726;50.122;8.832;2023-03-03T09:13:17;4.50;99.90
23114;DHT22;11726;50.122;8.832;2023-03-03T09:15:45;4.70;99.90
23114;DHT22;11726;50.122;8.832;2023-03-03T09:18:20;4.60;99.90
23114;DHT22;11726;50.122;8.832;2023-03-03T09:20:54;4.70;99.90
23114;DHT22;11726;50.122;8.832;2023-03-03T09:25:50;4.60;99.90
23114;DHT22;11726;50.122;8.832;2023-03-03T09:28:28;4.70;99.90
23114;DHT22;11726;50.122;8.832;2023-03-03T09:31:02;4.90;99.90
23114;DHT22;11726;50.122;8.832;2023-03-03T09:33:44;5.00;99.90
23114;DHT22;11726;50.122;8.832;2023-03-03T09:38:50;5.00;99.90
23114;DHT22;11726;50.122;8.832;2023-03-03T09:41:35;5.00;99.90
23114;DHT22;11726;50.122;8.832;2023-03-03T09:52:32;5.10;99.90
23114;DHT22;11726;50.122;8.832;2023-03-03T09:58:08;4.60;99.90
23114;DHT22;11726;50.122;8.832;2023-03-03T10:11:28;4.20;99.90
23114;DHT22;11726;50.122;8.832;2023-03-03T10:14:25;4.50;99.90
23114;DHT22;11726;50.122;8.832;2023-03-03T10:17:04;4.60;99.90
23114;DHT22;11726;50.122;8.832;2023-03-03T10:19:37;4.50;99.90
23114;DHT22;11726;50.122;8.832;2023-03-03T10:22:20;4.70;99.90
23114;DHT22;11726;50.122;8.832;2023-03-03T10:31:00;5.30;99.90
23114;DHT22;11726;50.122;8.832;2023-03-03T10:36:43;4.90;99.90
23114;DHT22;11726;50.122;8.832;2023-03-03T10:42:06;5.30;99.90
23114;DHT22;11726;50.122;8.832;2023-03-03T10:50:09;5.20;99.90
23114;DHT22;11726;50.122;8.832;2023-03-03T10:53:09;5.30;99.90
23114;DHT22;11726;50.122;8.832;2023-03-03T10:58:59;5.50;99.90
23114;DHT22;11726;50.122;8.832;2023-03-03T11:01:48;5.40;99.90
23114;DHT22;11726;50.122;8.832;2023-03-03T11:07:28;5.40;99.90
23114;DHT22;11726;50.122;8.832;2023-03-03T11:19:09;6.10;99.90
23114;DHT22;11726;50.122;8.832;2023-03-03T11:21:50;6.10;99.90
23114;DHT22;11726;50.122;8.832;2023-03-03T11:24:46;6.00;99.90
23114;DHT22;11726;50.122;8.832;2023-03-03T11:32:37;6.00;99.90
23114;DHT22;11726;50.122;8.832;2023-03-03T11:35:28;6.00;99.90
23114;DHT22;11726;50.122;8.832;2023-03-03T11:41:29;6.60;99.90
23114;DHT22;11726;50.122;8.832;2023-03-03T11:44:04;6.70;99.90
23114;DHT22;11726;50.122;8.832;2023-03-03T11:47:00;6.40;99.90
23114;DHT22;11726;50.122;8.832;2023-03-03T11:52:42;6.70;99.90
23114;DHT22;11726;50.122;8.832;2023-03-03T12:03:54;6.70;99.90
23114;DHT22;11726;50.122;8.832;2023-03-03T12:06:39;7.70;99.90
23114;DHT22;11726;50.122;8.832;2023-03-03T12:09:34;7.50;99.90
23114;DHT22;11726;50.122;8.832;2023-03-03T12:14:45;7.30;99.90
23114;DHT22;11726;50.122;8.832;2023-03-03T12:17:38;7.40;99.90
23114;DHT22;11726;50.122;8.832;2023-03-03T12:20:17;7.30;99.90
23114;DHT22;11726;50.122;8.832;2023-03-03T12:23:17;7.30;99.90
23114;DHT22;11726;50.122;8.832;2023-03-03T12:28:39;7.50;99.90
23114;DHT22;11726;50.122;8.832;2023-03-03T12:34:39;7.60;99.90
23114;DHT22;11726;50.122;8.832;2023-03-03T12:40:29;8.20;99.90
23114;DHT22;11726;50.122;8.832;2023-03-03T12:43:13;8.30;99.90
23114;DHT22;11726;50.122;8.832;2023-03-03T12:46:08;8.40;99.90
23114;DHT22;11726;50.122;8.832;2023-03-03T12:54:24;8.50;99.90
23114;DHT22;11726;50.122;8.832;2023-03-03T12:57:03;8.40;99.90
23114;DHT22;11726;50.122;8.832;2023-03-03T12:59:52;8.10;99.90
23114;DHT22;11726;50.122;8.832;2023-03-03T13:08:11;8.20;99.90
23114;DHT22;11726;50.122;8.832;2023-03-03T13:10:56;8.80;99.90
23114;DHT22;11726;50.122;8.832;2023-03-03T13:13:46;9.30;99.90
23114;DHT22;11726;50.122;8.832;2023-03-03T13:16:24;9.40;99.90
23114;DHT22;11726;50.122;8.832;2023-03-03T13:19:07;9.50;99.90
23114;DHT22;11726;50.122;8.832;2023-03-03T13:21:59;10.00;99.90
23114;DHT22;11726;50.122;8.832;2023-03-03T13:27:18;9.90;99.90
23114;DHT22;11726;50.122;8.832;2023-03-03T13:33:09;9.80;99.90
23114;DHT22;11726;50.122;8.832;2023-03-03T13:35:45;9.50;99.90
23114;DHT22;11726;50.122;8.832;2023-03-03T13:38:20;9.80;99.90
23114;DHT22;11726;50.122;8.832;2023-03-03T13:40:48;10.00;99.90
23114;DHT22;11726;50.122;8.832;2023-03-03T13:43:18;9.90;99.90
23114;DHT22;11726;50.122;8.832;2023-03-03T13:46:07;9.90;99.90
23114;DHT22;11726;50.122;8.832;2023-03-03T13:51:42;10.00;99.90
23114;DHT22;11726;50.122;8.832;2023-03-03T13:59:43;11.50;97.70
23114;DHT22;11726;50.122;8.832;2023-03-03T14:02:46;12.10;95.50
23114;DHT22;11726;50.122;8.832;2023-03-03T14:05:39;11.20;96.20
23114;DHT22;11726;50.122;8.832;2023-03-03T14:08:33;11.30;96.40
23114;DHT22;11726;50.122;8.832;2023-03-03T14:11:13;11.10;96.90
23114;DHT22;11726;50.122;8.832;2023-03-03T14:18:54;10.90;97.80
23114;DHT22;11726;50.122;8.832;2023-03-03T14:21:48;11.00;96.60
23114;DHT22;11726;50.122;8.832;2023-03-03T14:24:21;10.90;96.50
23114;DHT22;11726;50.122;8.832;2023-03-03T14:26:51;10.70;97.10
23114;DHT22;11726;50.122;8.832;2023-03-03T14:36:50;10.40;98.10
23114;DHT22;11726;50.122;8.832;2023-03-03T14:39:31;10.30;98.70
23114;DHT22;11726;50.122;8.832;2023-03-03T14:41:58;10.30;98.50
23114;DHT22;11726;50.122;8.832;2023-03-03T14:44:51;9.80;98.60
23114;DHT22;11726;50.122;8.832;2023-03-03T14:47:23;9.80;99.40
23114;DHT22;11726;50.122;8.832;2023-03-03T14:49:51;9.80;99.90
23114;DHT22;11726;50.122;8.832;2023-03-03T14:52:27;9.80;99.60
23114;DHT22;11726;50.122;8.832;2023-03-03T14:54:56;9.70;99.80
23114;DHT22;11726;50.122;8.832;2023-03-03T15:05:21;10.20;99.50
23114;DHT22;11726;50.122;8.832;2023-03-03T15:07:51;9.90;99.40
23114;DHT22;11726;50.122;8.832;2023-03-03T15:10:36;9.10;99.90
23114;DHT22;11726;50.122;8.832;2023-03-03T15:18:24;9.20;99.90
23114;DHT22;11726;50.122;8.832;2023-03-03T15:21:03;9.30;99.90
23114;DHT22;11726;50.122;8.832;2023-03-03T15:28:51;10.80;97.90
23114;DHT22;11726;50.122;8.832;2023-03-03T15:34:40;11.30;95.80
23114;DHT22;11726;50.122;8.832;2023-03-03T15:40:26;11.10;96.00
23114;DHT22;11726;50.122;8.832;2023-03-03T15:51:19;10.90;96.70
23114;DHT22;11726;50.122;8.832;2023-03-03T15:56:57;10.40;96.50
23114;DHT22;11726;50.122;8.832;2023-03-03T16:08:22;9.40;98.90
23114;DHT22;11726;50.122;8.832;2023-03-03T16:11:01;9.30;99.30
23114;DHT22;11726;50.122;8.832;2023-03-03T16:13:50;9.10;99.40
23114;DHT22;11726;50.122;8.832;2023-03-03T16:22:02;8.80;99.90
23114;DHT22;11726;50.122;8.832;2023-03-03T16:24:53;8.60;99.90
23114;DHT22;11726;50.122;8.832;2023-03-03T16:27:27;8.50;99.90
23114;DHT22;11726;50.122;8.832;2023-03-03T16:33:10;8.20;99.90
23114;DHT22;11726;50.122;8.832;2023-03-03T16:38:52;7.90;99.90
23114;DHT22;11726;50.122;8.832;2023-03-03T16:44:33;7.80;99.90
23114;DHT22;11726;50.122;8.832;2023-03-03T16:47:31;7.70;99.90
23114;DHT22;11726;50.122;8.832;2023-03-03T16:50:20;7.60;99.90
23114;DHT22;11726;50.122;8.832;2023-03-03T16:53:08;7.50;99.90
23114;DHT22;11726;50.122;8.832;2023-03-03T16:55:47;7.50;99.90
23114;DHT22;11726;50.122;8.832;2023-03-03T17:01:00;7.20;99.90
23114;DHT22;11726;50.122;8.832;2023-03-03T17:09:39;6.90;99.90
23114;DHT22;11726;50.122;8.832;2023-03-03T17:12:29;6.90;99.90
23114;DHT22;11726;50.122;8.832;2023-03-03T17:20:43;6.50;99.90
23114;DHT22;11726;50.122;8.832;2023-03-03T17:26:15;6.40;99.90
23114;DHT22;11726;50.122;8.832;2023-03-03T17:29:18;6.30;99.90
23114;DHT22;11726;50.122;8.832;2023-03-03T17:37:39;6.10;99.90
23114;DHT22;11726;50.122;8.832;2023-03-03T17:40:19;6.00;99.90
23114;DHT22;11726;50.122;8.832;2023-03-03T17:43:04;5.90;99.90
23114;DHT22;11726;50.122;8.832;2023-03-03T17:45:40;5.80;99.90
23114;DHT22;11726;50.122;8.832;2023-03-03T17:48:39;5.70;99.90
23114;DHT22;11726;50.122;8.832;2023-03-03T17:59:54;5.60;99.90
23114;DHT22;11726;50.122;8.832;2023-03-03T18:02:36;5.50;99.90
23114;DHT22;11726;50.122;8.832;2023-03-03T18:12:33;5.40;99.90
23114;DHT22;11726;50.122;8.832;2023-03-03T18:15:07;5.40;99.90
23114;DHT22;11726;50.122;8.832;2023-03-03T18:17:50;5.30;99.90
23114;DHT22;11726;50.122;8.832;2023-03-03T18:23:40;5.20;99.90
23114;DHT22;11726;50.122;8.832;2023-03-03T18:26:31;5.10;99.90
23114;DHT22;11726;50.122;8.832;2023-03-03T18:29:18;5.20;99.90
23114;DHT22;11726;50.122;8.832;2023-03-03T18:36:58;5.00;99.90
23114;DHT22;11726;50.122;8.832;2023-03-03T18:42:45;4.90;99.90
23114;DHT22;11726;50.122;8.832;2023-03-03T19:05:54;4.60;99.90
23114;DHT22;11726;50.122;8.832;2023-03-03T19:08:25;4.60;99.90
23114;DHT22;11726;50.122;8.832;2023-03-03T19:11:03;4.50;99.90
23114;DHT22;11726;50.122;8.832;2023-03-03T19:18:59;4.40;99.90
23114;DHT22;11726;50.122;8.832;2023-03-03T19:21:34;4.40;99.90
23114;DHT22;11726;50.122;8.832;2023-03-03T19:26:43;4.30;99.90
23114;DHT22;11726;50.122;8.832;2023-03-03T19:29:19;4.30;99.90
23114;DHT22;11726;50.122;8.832;2023-03-03T19:31:57;4.40;99.90
23114;DHT22;11726;50.122;8.832;2023-03-03T19:40:18;4.20;99.90
23114;DHT22;11726;50.122;8.832;2023-03-03T19:54:41;3.90;99.90
23114;DHT22;11726;50.122;8.832;2023-03-03T20:00:40;3.90;99.90
23114;DHT22;11726;50.122;8.832;2023-03-03T20:03:30;3.80;99.90
23114;DHT22;11726;50.122;8.832;2023-03-03T20:12:03;3.70;99.90
23114;DHT22;11726;50.122;8.832;2023-03-03T20:17:27;3.50;99.90
23114;DHT22;11726;50.122;8.832;2023-03-03T20:22:59;3.50;99.90
23114;DHT22;11726;50.122;8.832;2023-03-03T20:34:37;3.40;99.90
23114;DHT22;11726;50.122;8.832;2023-03-03T20:37:51;3.20;99.90
23114;DHT22;11726;50.122;8.832;2023-03-03T20:40:22;3.20;99.90
23114;DHT22;11726;50.122;8.832;2023-03-03T20:43:04;3.10;99.90
23114;DHT22;11726;50.122;8.832;2023-03-03T20:48:37;3.10;99.90
23114;DHT22;11726;50.122;8.832;2023-03-03T20:51:14;3.10;99.90
23114;DHT22;11726;50.122;8.832;2023-03-03T20:56:49;3.00;99.90
23114;DHT22;11726;50.122;8.832;2023-03-03T20:59:33;3.00;99.90
23114;DHT22;11726;50.122;8.832;2023-03-03T21:04:45;3.00;99.90
23114;DHT22;11726;50.122;8.832;2023-03-03T21:07:25;3.00;99.90
23114;DHT22;11726;50.122;8.832;2023-03-03T21:10:11;3.00;99.90
23114;DHT22;11726;50.122;8.832;2023-03-03T21:12:37;2.90;99.90
23114;DHT22;11726;50.122;8.832;2023-03-03T21:15:10;3.00;99.90
23114;DHT22;11726;50.122;8.832;2023-03-03T21:17:46;2.80;99.90
23114;DHT22;11726;50.122;8.832;2023-03-03T21:20:43;2.70;99.90
23114;DHT22;11726;50.122;8.832;2023-03-03T21:23:08;2.70;99.90
23114;DHT22;11726;50.122;8.832;2023-03-03T21:33:37;2.60;99.90
23114;DHT22;11726;50.122;8.832;2023-03-03T21:36:04;2.60;99.90
23114;DHT22;11726;50.122;8.832;2023-03-03T21:38:35;2.60;99.90
23114;DHT22;11726;50.122;8.832;2023-03-03T21:41:03;2.50;99.90
23114;DHT22;11726;50.122;8.832;2023-03-03T21:43:44;2.50;99.90
23114;DHT22;11726;50.122;8.832;2023-03-03T21:46:11;2.50;99.90
23114;DHT22;11726;50.122;8.832;2023-03-03T21:48:41;2.60;99.90
23114;DHT22;11726;50.122;8.832;2023-03-03T21:51:09;2.70;99.90
23114;DHT22;11726;50.122;8.832;2023-03-03T21:53:36;2.60;99.90
23114;DHT22;11726;50.122;8.832;2023-03-03T21:56:03;2.70;99.90
23114;DHT22;11726;50.122;8.832;2023-03-03T21:58:29;2.60;99.90
23114;DHT22;11726;50.122;8.832;2023-03-03T22:00:56;2.50;99.90
23114;DHT22;11726;50.122;8.832;2023-03-03T22:03:23;2.50;99.90
23114;DHT22;11726;50.122;8.832;2023-03-03T22:05:49;2.50;99.90
23114;DHT22;11726;50.122;8.832;2023-03-03T22:08:16;2.50;99.90
23114;DHT22;11726;50.122;8.832;2023-03-03T22:10:49;2.50;99.90
23114;DHT22;11726;50.122;8.832;2023-03-03T22:13:23;2.50;99.90
23114;DHT22;11726;50.122;8.832;2023-03-03T22:15:49;2.40;99.90
23114;DHT22;11726;50.122;8.832;2023-03-03T22:18:17;2.40;99.90
23114;DHT22;11726;50.122;8.832;2023-03-03T22:20:45;2.50;99.90
23114;DHT22;11726;50.122;8.832;2023-03-03T22:23:13;2.60;99.90
23114;DHT22;11726;50.122;8.832;2023-03-03T22:25:40;2.60;99.90
23114;DHT22;11726;50.122;8.832;2023-03-03T22:28:07;2.50;99.90
23114;DHT22;11726;50.122;8.832;2023-03-03T22:30:35;2.50;99.90
23114;DHT22;11726;50.122;8.832;2023-03-03T22:33:02;2.50;99.90